This is the latest recevied weather packets stored in our database for station/object DG2YCM-10. If no packets are shown the sender has not sent any weather packets the latest 10 day(s).
| Time | Temp. | Humidity | Pressure | Rain* | Wind** | Luminosity | Snow |
|---|---|---|---|---|---|---|---|
| 1777893073 | 18.33° C | 64% | 1008.6 hPa | - | - | - | - |
| 1777889533 | 17.78° C | 63% | 1008.6 hPa | - | - | - | - |
| 1777885993 | 18.33° C | 56% | 1008.7 hPa | - | - | - | - |
| 1777882453 | 17.22° C | 59% | 1008.5 hPa | - | - | - | - |
| 1777878913 | 17.22° C | 59% | 1008.4 hPa | - | - | - | - |
| 1777875373 | 11.67° C | 84% | 1008.2 hPa | - | - | - | - |
| 1777871833 | 9.44° C | 93% | 1008.5 hPa | - | - | - | - |
| 1777868292 | 8.33° C | 92% | 1008.3 hPa | - | - | - | - |
| 1777864752 | 8.89° C | 91% | 1008.3 hPa | - | - | - | - |
| 1777861212 | 9.44° C | 89% | 1008.2 hPa | - | - | - | - |
| 1777857671 | 10° C | 84% | 1008.5 hPa | - | - | - | - |
| 1777854131 | 10.56° C | 84% | 1008.2 hPa | - | - | - | - |
| 1777850591 | 11.67° C | 78% | 1008.3 hPa | - | - | - | - |
| 1777847050 | 12.78° C | 71% | 1008.3 hPa | - | - | - | - |
| 1777843510 | 13.89° C | 63% | 1008.2 hPa | - | - | - | - |
| 1777839969 | 15° C | 60% | 1008.1 hPa | - | - | - | - |
| 1777836429 | 16.67° C | 53% | 1008 hPa | - | - | - | - |
| 1777832889 | 17.78° C | 57% | 1007.8 hPa | - | - | - | - |
| 1777829349 | 17.22° C | 58% | 1007.8 hPa | - | - | - | - |
| 1777825808 | 18.89° C | 59% | 1008.1 hPa | - | - | - | - |
| 1777822268 | 19.44° C | 50% | 1008.1 hPa | - | - | - | - |
| 1777818728 | 20.56° C | 46% | 1007.8 hPa | - | - | - | - |
| 1777815188 | 23.33° C | 37% | 1007.7 hPa | - | - | - | - |
| 1777811648 | 22.78° C | 34% | 1008 hPa | - | - | - | - |
| 1777808108 | 21.67° C | 38% | 1008.1 hPa | - | - | - | - |
* Rain since midnight (hover to see other rain measurements)
** Current wind speed in m/s (hover to see current wind gust speed)